sensor_id;sensor_type;location;lat;lon;timestamp;pressure;altitude;pressure_sealevel;temperature;humidity
72409;BME280;60402;48.082;11.628;2022-07-18T00:00:04;96094.28;;;15.49;59.97
72409;BME280;60402;48.082;11.628;2022-07-18T00:02:30;96088.94;;;15.38;60.42
72409;BME280;60402;48.082;11.628;2022-07-18T00:04:56;96069.88;;;15.26;60.24
72409;BME280;60402;48.082;11.628;2022-07-18T00:07:21;96105.09;;;15.54;60.04
72409;BME280;60402;48.082;11.628;2022-07-18T00:09:46;96086.25;;;15.56;59.60
72409;BME280;60402;48.082;11.628;2022-07-18T00:12:11;96099.38;;;15.54;59.99
72409;BME280;60402;48.082;11.628;2022-07-18T00:14:38;96103.19;;;15.73;59.83
72409;BME280;60402;48.082;11.628;2022-07-18T00:17:04;96113.03;;;15.59;60.60
72409;BME280;60402;48.082;11.628;2022-07-18T00:19:30;96082.78;;;15.18;61.42
72409;BME280;60402;48.082;11.628;2022-07-18T00:21:55;96089.59;;;15.20;61.35
72409;BME280;60402;48.082;11.628;2022-07-18T00:24:21;96098.88;;;15.33;61.10
72409;BME280;60402;48.082;11.628;2022-07-18T00:26:46;96091.69;;;15.42;60.72
72409;BME280;60402;48.082;11.628;2022-07-18T00:29:12;96111.44;;;15.58;60.38
72409;BME280;60402;48.082;11.628;2022-07-18T00:31:38;96091.94;;;15.56;60.11
72409;BME280;60402;48.082;11.628;2022-07-18T00:34:03;96104.72;;;15.52;60.54
72409;BME280;60402;48.082;11.628;2022-07-18T00:36:30;96101.81;;;15.43;60.88
72409;BME280;60402;48.082;11.628;2022-07-18T00:38:56;96102.63;;;15.43;61.22
72409;BME280;60402;48.082;11.628;2022-07-18T00:41:21;96092.75;;;15.35;61.05
72409;BME280;60402;48.082;11.628;2022-07-18T00:43:47;96098.63;;;15.41;60.86
72409;BME280;60402;48.082;11.628;2022-07-18T00:46:13;96112.69;;;15.35;61.18
72409;BME280;60402;48.082;11.628;2022-07-18T00:48:39;96101.97;;;15.39;61.23
72409;BME280;60402;48.082;11.628;2022-07-18T00:51:05;96092.22;;;15.15;62.19
72409;BME280;60402;48.082;11.628;2022-07-18T00:53:30;96107.00;;;15.22;62.48
72409;BME280;60402;48.082;11.628;2022-07-18T00:55:56;96097.50;;;15.03;62.98
72409;BME280;60402;48.082;11.628;2022-07-18T00:58:22;96101.13;;;15.17;62.50
72409;BME280;60402;48.082;11.628;2022-07-18T01:00:47;96096.50;;;14.85;63.42
72409;BME280;60402;48.082;11.628;2022-07-18T01:03:31;96080.63;;;14.49;64.87
72409;BME280;60402;48.082;11.628;2022-07-18T01:05:56;96091.09;;;14.65;64.53
72409;BME280;60402;48.082;11.628;2022-07-18T01:08:22;96070.59;;;14.57;64.55
72409;BME280;60402;48.082;11.628;2022-07-18T01:10:47;96106.78;;;14.82;64.18
72409;BME280;60402;48.082;11.628;2022-07-18T01:13:13;96094.38;;;14.76;64.08
72409;BME280;60402;48.082;11.628;2022-07-18T01:15:38;96093.25;;;14.48;65.25
72409;BME280;60402;48.082;11.628;2022-07-18T01:18:04;96077.88;;;14.32;65.48
72409;BME280;60402;48.082;11.628;2022-07-18T01:20:30;96097.78;;;14.45;65.80
72409;BME280;60402;48.082;11.628;2022-07-18T01:22:57;96087.75;;;14.15;66.13
72409;BME280;60402;48.082;11.628;2022-07-18T01:25:22;96079.22;;;13.90;67.49
72409;BME280;60402;48.082;11.628;2022-07-18T01:27:48;96095.31;;;13.80;68.52
72409;BME280;60402;48.082;11.628;2022-07-18T01:30:13;96067.78;;;13.64;67.76
72409;BME280;60402;48.082;11.628;2022-07-18T01:32:40;96096.09;;;13.68;68.27
72409;BME280;60402;48.082;11.628;2022-07-18T01:35:06;96093.84;;;13.75;68.27
72409;BME280;60402;48.082;11.628;2022-07-18T01:37:32;96075.78;;;13.69;67.58
72409;BME280;60402;48.082;11.628;2022-07-18T01:39:57;96100.03;;;13.99;67.25
72409;BME280;60402;48.082;11.628;2022-07-18T01:42:22;96091.81;;;13.89;67.35
72409;BME280;60402;48.082;11.628;2022-07-18T01:44:48;96097.00;;;13.77;67.28
72409;BME280;60402;48.082;11.628;2022-07-18T01:47:13;96094.69;;;13.60;68.63
72409;BME280;60402;48.082;11.628;2022-07-18T01:49:39;96093.38;;;13.77;67.37
72409;BME280;60402;48.082;11.628;2022-07-18T01:52:06;96092.63;;;14.02;66.59
72409;BME280;60402;48.082;11.628;2022-07-18T01:54:32;96087.41;;;14.00;66.86
72409;BME280;60402;48.082;11.628;2022-07-18T01:56:59;96101.59;;;14.00;67.20
72409;BME280;60402;48.082;11.628;2022-07-18T01:59:25;96098.31;;;14.02;66.55
72409;BME280;60402;48.082;11.628;2022-07-18T02:01:51;96089.06;;;13.72;67.05
72409;BME280;60402;48.082;11.628;2022-07-18T02:04:17;96083.22;;;13.63;67.33
72409;BME280;60402;48.082;11.628;2022-07-18T02:06:43;96105.19;;;13.75;67.64
72409;BME280;60402;48.082;11.628;2022-07-18T02:09:10;96091.78;;;13.76;67.31
72409;BME280;60402;48.082;11.628;2022-07-18T02:11:36;96095.44;;;13.76;67.36
72409;BME280;60402;48.082;11.628;2022-07-18T02:14:03;96103.63;;;13.74;68.10
72409;BME280;60402;48.082;11.628;2022-07-18T02:16:29;96103.19;;;13.47;68.82
72409;BME280;60402;48.082;11.628;2022-07-18T02:18:55;96074.78;;;13.47;68.52
72409;BME280;60402;48.082;11.628;2022-07-18T02:21:21;96097.66;;;13.69;68.24
72409;BME280;60402;48.082;11.628;2022-07-18T02:23:46;96063.53;;;13.43;67.78
72409;BME280;60402;48.082;11.628;2022-07-18T02:26:12;96096.91;;;13.81;67.22
72409;BME280;60402;48.082;11.628;2022-07-18T02:28:37;96071.19;;;13.59;68.07
72409;BME280;60402;48.082;11.628;2022-07-18T02:31:04;96093.56;;;13.57;68.39
72409;BME280;60402;48.082;11.628;2022-07-18T02:33:30;96084.59;;;13.29;69.11
72409;BME280;60402;48.082;11.628;2022-07-18T02:35:55;96070.63;;;13.06;69.47
72409;BME280;60402;48.082;11.628;2022-07-18T02:38:21;96089.53;;;13.42;69.05
72409;BME280;60402;48.082;11.628;2022-07-18T02:40:46;96081.44;;;13.40;69.02
72409;BME280;60402;48.082;11.628;2022-07-18T02:43:12;96077.13;;;12.90;70.67
72409;BME280;60402;48.082;11.628;2022-07-18T02:45:37;96073.50;;;12.73;71.32
72409;BME280;60402;48.082;11.628;2022-07-18T02:48:03;96069.94;;;12.86;70.61
72409;BME280;60402;48.082;11.628;2022-07-18T02:50:28;96058.00;;;12.78;70.58
72409;BME280;60402;48.082;11.628;2022-07-18T02:52:54;96062.16;;;12.90;70.05
72409;BME280;60402;48.082;11.628;2022-07-18T02:55:21;96087.69;;;12.90;70.94
72409;BME280;60402;48.082;11.628;2022-07-18T02:57:48;96081.63;;;12.88;70.64
72409;BME280;60402;48.082;11.628;2022-07-18T03:00:14;96096.16;;;13.06;70.02
72409;BME280;60402;48.082;11.628;2022-07-18T03:02:40;96077.84;;;12.94;70.07
72409;BME280;60402;48.082;11.628;2022-07-18T03:05:06;96043.94;;;12.58;70.64
72409;BME280;60402;48.082;11.628;2022-07-18T03:07:32;96100.06;;;12.79;71.39
72409;BME280;60402;48.082;11.628;2022-07-18T03:09:57;96093.88;;;12.85;70.74
72409;BME280;60402;48.082;11.628;2022-07-18T03:12:22;96090.16;;;12.88;70.70
72409;BME280;60402;48.082;11.628;2022-07-18T03:14:48;96074.66;;;12.76;70.60
72409;BME280;60402;48.082;11.628;2022-07-18T03:17:14;96081.03;;;12.80;70.85
72409;BME280;60402;48.082;11.628;2022-07-18T03:19:39;96072.63;;;12.76;70.58
72409;BME280;60402;48.082;11.628;2022-07-18T03:22:04;96105.16;;;13.17;69.54
72409;BME280;60402;48.082;11.628;2022-07-18T03:24:30;96069.31;;;12.94;69.44
72409;BME280;60402;48.082;11.628;2022-07-18T03:26:56;96099.94;;;13.16;69.90
72409;BME280;60402;48.082;11.628;2022-07-18T03:29:22;96091.72;;;12.89;70.06
72409;BME280;60402;48.082;11.628;2022-07-18T03:31:47;96088.88;;;13.05;69.45
72409;BME280;60402;48.082;11.628;2022-07-18T03:34:13;96105.34;;;13.26;69.19
72409;BME280;60402;48.082;11.628;2022-07-18T03:36:39;96094.66;;;13.01;69.19
72409;BME280;60402;48.082;11.628;2022-07-18T03:39:05;96102.78;;;13.16;69.21
72409;BME280;60402;48.082;11.628;2022-07-18T03:41:30;96113.97;;;13.23;69.10
72409;BME280;60402;48.082;11.628;2022-07-18T03:43:56;96110.41;;;13.19;69.12
72409;BME280;60402;48.082;11.628;2022-07-18T03:46:21;96112.22;;;13.13;68.88
72409;BME280;60402;48.082;11.628;2022-07-18T03:48:47;96092.66;;;12.86;69.90
72409;BME280;60402;48.082;11.628;2022-07-18T03:51:12;96106.75;;;12.89;70.17
72409;BME280;60402;48.082;11.628;2022-07-18T03:53:37;96122.13;;;12.88;70.46
72409;BME280;60402;48.082;11.628;2022-07-18T03:56:03;96087.34;;;12.71;70.09
72409;BME280;60402;48.082;11.628;2022-07-18T03:58:29;96129.69;;;12.95;70.54
72409;BME280;60402;48.082;11.628;2022-07-18T04:00:54;96112.91;;;13.00;69.82
72409;BME280;60402;48.082;11.628;2022-07-18T04:03:19;96116.69;;;13.26;68.85
72409;BME280;60402;48.082;11.628;2022-07-18T04:05:45;96131.06;;;13.36;68.98
72409;BME280;60402;48.082;11.628;2022-07-18T04:08:10;96110.94;;;13.30;68.86
72409;BME280;60402;48.082;11.628;2022-07-18T04:10:36;96118.81;;;13.39;68.27
72409;BME280;60402;48.082;11.628;2022-07-18T04:13:05;96130.22;;;13.51;67.94
72409;BME280;60402;48.082;11.628;2022-07-18T04:15:31;96100.75;;;13.33;68.02
72409;BME280;60402;48.082;11.628;2022-07-18T04:17:56;96116.31;;;13.41;68.50
72409;BME280;60402;48.082;11.628;2022-07-18T04:20:22;96135.50;;;13.20;69.04
72409;BME280;60402;48.082;11.628;2022-07-18T04:25:24;96096.75;;;13.14;68.61
72409;BME280;60402;48.082;11.628;2022-07-18T04:27:50;96129.28;;;13.42;68.88
72409;BME280;60402;48.082;11.628;2022-07-18T04:30:19;96140.53;;;13.45;68.65
72409;BME280;60402;48.082;11.628;2022-07-18T04:32:45;96116.28;;;13.28;69.61
72409;BME280;60402;48.082;11.628;2022-07-18T04:35:10;96136.06;;;13.61;69.01
72409;BME280;60402;48.082;11.628;2022-07-18T04:37:37;96128.66;;;13.63;68.92
72409;BME280;60402;48.082;11.628;2022-07-18T04:40:03;96130.00;;;13.59;68.98
72409;BME280;60402;48.082;11.628;2022-07-18T04:42:29;96136.06;;;13.61;69.62
72409;BME280;60402;48.082;11.628;2022-07-18T04:44:56;96111.63;;;13.63;68.81
72409;BME280;60402;48.082;11.628;2022-07-18T04:47:22;96110.97;;;13.72;68.09
72409;BME280;60402;48.082;11.628;2022-07-18T04:49:47;96088.53;;;13.48;68.33
72409;BME280;60402;48.082;11.628;2022-07-18T04:52:12;96125.78;;;13.79;68.46
72409;BME280;60402;48.082;11.628;2022-07-18T04:54:38;96106.56;;;13.71;68.40
72409;BME280;60402;48.082;11.628;2022-07-18T04:57:03;96103.66;;;14.00;67.32
72409;BME280;60402;48.082;11.628;2022-07-18T04:59:28;96125.97;;;14.14;67.69
72409;BME280;60402;48.082;11.628;2022-07-18T05:01:54;96107.41;;;14.10;67.03
72409;BME280;60402;48.082;11.628;2022-07-18T05:04:19;96111.13;;;14.61;65.49
72409;BME280;60402;48.082;11.628;2022-07-18T05:06:44;96126.97;;;15.09;64.24
72409;BME280;60402;48.082;11.628;2022-07-18T05:09:10;96098.09;;;14.86;64.33
72409;BME280;60402;48.082;11.628;2022-07-18T05:11:35;96127.44;;;15.43;63.27
72409;BME280;60402;48.082;11.628;2022-07-18T05:14:00;96122.50;;;15.56;63.16
72409;BME280;60402;48.082;11.628;2022-07-18T05:16:26;96089.16;;;15.78;61.49
72409;BME280;60402;48.082;11.628;2022-07-18T05:18:51;96118.34;;;16.45;60.57
72409;BME280;60402;48.082;11.628;2022-07-18T05:21:17;96132.47;;;16.17;61.57
72409;BME280;60402;48.082;11.628;2022-07-18T05:23:42;96110.28;;;15.90;62.18
72409;BME280;60402;48.082;11.628;2022-07-18T05:26:07;96104.28;;;16.19;61.21
72409;BME280;60402;48.082;11.628;2022-07-18T05:28:33;96087.28;;;16.06;61.50
72409;BME280;60402;48.082;11.628;2022-07-18T05:30:58;96128.75;;;16.07;62.58
72409;BME280;60402;48.082;11.628;2022-07-18T05:33:24;96106.97;;;15.92;63.10
72409;BME280;60402;48.082;11.628;2022-07-18T05:35:49;96115.13;;;16.02;62.04
72409;BME280;60402;48.082;11.628;2022-07-18T05:38:14;96049.19;;;15.69;61.81
72409;BME280;60402;48.082;11.628;2022-07-18T05:40:40;96110.06;;;16.28;61.36
72409;BME280;60402;48.082;11.628;2022-07-18T05:43:05;96105.59;;;16.27;61.75
72409;BME280;60402;48.082;11.628;2022-07-18T05:45:30;96120.69;;;16.68;61.24
72409;BME280;60402;48.082;11.628;2022-07-18T05:47:56;96110.75;;;16.73;60.41
72409;BME280;60402;48.082;11.628;2022-07-18T05:50:22;96099.25;;;16.95;59.84
72409;BME280;60402;48.082;11.628;2022-07-18T05:52:48;96118.88;;;16.93;60.48
72409;BME280;60402;48.082;11.628;2022-07-18T05:55:14;96095.13;;;17.05;60.34
72409;BME280;60402;48.082;11.628;2022-07-18T05:57:39;96102.16;;;17.22;59.85
72409;BME280;60402;48.082;11.628;2022-07-18T06:00:06;96112.16;;;17.45;59.79
72409;BME280;60402;48.082;11.628;2022-07-18T06:02:32;96127.13;;;17.77;58.89
72409;BME280;60402;48.082;11.628;2022-07-18T06:04:58;96103.75;;;17.97;58.04
72409;BME280;60402;48.082;11.628;2022-07-18T06:07:24;96072.59;;;18.17;57.06
72409;BME280;60402;48.082;11.628;2022-07-18T06:09:49;96116.47;;;18.65;56.77
72409;BME280;60402;48.082;11.628;2022-07-18T06:12:15;96122.66;;;20.17;52.70
72409;BME280;60402;48.082;11.628;2022-07-18T06:14:40;96097.13;;;21.49;48.35
72409;BME280;60402;48.082;11.628;2022-07-18T06:17:06;96113.38;;;22.65;44.98
72409;BME280;60402;48.082;11.628;2022-07-18T06:19:31;96095.22;;;21.25;48.17
72409;BME280;60402;48.082;11.628;2022-07-18T06:21:57;96113.97;;;20.26;50.88
72409;BME280;60402;48.082;11.628;2022-07-18T06:24:22;96093.34;;;19.83;52.04
72409;BME280;60402;48.082;11.628;2022-07-18T06:26:48;96094.28;;;20.34;50.70
72409;BME280;60402;48.082;11.628;2022-07-18T06:29:15;96106.13;;;20.41;50.00
72409;BME280;60402;48.082;11.628;2022-07-18T06:31:40;96102.19;;;20.68;49.57
72409;BME280;60402;48.082;11.628;2022-07-18T06:34:05;96091.19;;;20.82;48.93
72409;BME280;60402;48.082;11.628;2022-07-18T06:36:31;96102.53;;;21.41;48.18
72409;BME280;60402;48.082;11.628;2022-07-18T06:38:56;96090.47;;;22.82;44.71
72409;BME280;60402;48.082;11.628;2022-07-18T06:41:21;96080.00;;;27.54;34.42
72409;BME280;60402;48.082;11.628;2022-07-18T06:43:47;96090.56;;;26.61;35.36
72409;BME280;60402;48.082;11.628;2022-07-18T06:46:12;96101.91;;;23.93;40.32
72409;BME280;60402;48.082;11.628;2022-07-18T06:48:37;96103.13;;;22.32;43.60
72409;BME280;60402;48.082;11.628;2022-07-18T06:51:04;96093.91;;;22.54;42.46
72409;BME280;60402;48.082;11.628;2022-07-18T06:53:30;96109.78;;;23.02;41.96
72409;BME280;60402;48.082;11.628;2022-07-18T06:55:56;96085.69;;;22.41;42.67
72409;BME280;60402;48.082;11.628;2022-07-18T06:58:22;96104.13;;;24.27;39.13
72409;BME280;60402;48.082;11.628;2022-07-18T07:00:47;96093.34;;;24.21;36.69
72409;BME280;60402;48.082;11.628;2022-07-18T07:03:13;96093.47;;;23.30;38.86
72409;BME280;60402;48.082;11.628;2022-07-18T07:05:38;96109.25;;;23.89;38.30
72409;BME280;60402;48.082;11.628;2022-07-18T07:08:04;96095.56;;;25.05;36.39
72409;BME280;60402;48.082;11.628;2022-07-18T07:10:29;96110.81;;;26.67;32.95
72409;BME280;60402;48.082;11.628;2022-07-18T07:12:55;96095.78;;;28.64;30.05
72409;BME280;60402;48.082;11.628;2022-07-18T07:15:22;96119.44;;;34.81;21.41
72409;BME280;60402;48.082;11.628;2022-07-18T07:17:48;96120.53;;;37.84;18.20
72409;BME280;60402;48.082;11.628;2022-07-18T07:20:14;96132.50;;;38.32;17.81
72409;BME280;60402;48.082;11.628;2022-07-18T07:22:48;96136.16;;;37.77;18.58
72409;BME280;60402;48.082;11.628;2022-07-18T07:25:14;96138.41;;;39.90;16.50
72409;BME280;60402;48.082;11.628;2022-07-18T07:27:40;96140.63;;;38.80;17.06
72409;BME280;60402;48.082;11.628;2022-07-18T07:30:06;96148.22;;;39.92;16.25
72409;BME280;60402;48.082;11.628;2022-07-18T07:32:36;96148.25;;;39.13;15.92
72409;BME280;60402;48.082;11.628;2022-07-18T07:35:03;96144.44;;;42.08;14.59
72409;BME280;60402;48.082;11.628;2022-07-18T07:37:28;96136.19;;;41.50;14.25
72409;BME280;60402;48.082;11.628;2022-07-18T07:39:55;96147.38;;;40.42;14.98
72409;BME280;60402;48.082;11.628;2022-07-18T07:42:20;96156.06;;;36.70;18.19
72409;BME280;60402;48.082;11.628;2022-07-18T07:44:45;96128.66;;;38.98;15.42
72409;BME280;60402;48.082;11.628;2022-07-18T07:47:11;96124.25;;;40.72;14.36
72409;BME280;60402;48.082;11.628;2022-07-18T07:49:36;96138.91;;;41.46;14.20
72409;BME280;60402;48.082;11.628;2022-07-18T07:52:02;96148.78;;;40.84;14.06
72409;BME280;60402;48.082;11.628;2022-07-18T07:54:27;96138.47;;;36.97;16.02
72409;BME280;60402;48.082;11.628;2022-07-18T07:56:52;96134.38;;;41.11;13.00
72409;BME280;60402;48.082;11.628;2022-07-18T07:59:18;96129.59;;;40.85;13.43
72409;BME280;60402;48.082;11.628;2022-07-18T08:01:43;96121.00;;;37.90;15.46
72409;BME280;60402;48.082;11.628;2022-07-18T08:04:08;96107.19;;;37.02;16.16
72409;BME280;60402;48.082;11.628;2022-07-18T08:06:34;96137.53;;;39.77;14.62
72409;BME280;60402;48.082;11.628;2022-07-18T08:08:59;96135.66;;;38.64;15.68
72409;BME280;60402;48.082;11.628;2022-07-18T08:11:24;96124.69;;;40.56;13.49
72409;BME280;60402;48.082;11.628;2022-07-18T08:13:50;96132.19;;;37.10;15.24
72409;BME280;60402;48.082;11.628;2022-07-18T08:16:15;96139.22;;;38.81;14.29
72409;BME280;60402;48.082;11.628;2022-07-18T08:18:40;96128.22;;;36.98;15.70
72409;BME280;60402;48.082;11.628;2022-07-18T08:21:06;96124.69;;;37.00;15.94
72409;BME280;60402;48.082;11.628;2022-07-18T08:23:31;96105.66;;;36.49;15.93
72409;BME280;60402;48.082;11.628;2022-07-18T08:25:56;96114.78;;;38.71;14.74
72409;BME280;60402;48.082;11.628;2022-07-18T08:28:21;96113.50;;;35.87;16.63
72409;BME280;60402;48.082;11.628;2022-07-18T08:30:47;96126.38;;;32.27;19.05
72409;BME280;60402;48.082;11.628;2022-07-18T08:33:12;96132.38;;;30.15;21.54
72409;BME280;60402;48.082;11.628;2022-07-18T08:35:38;96112.75;;;29.89;22.76
72409;BME280;60402;48.082;11.628;2022-07-18T08:38:03;96119.00;;;30.46;21.83
72409;BME280;60402;48.082;11.628;2022-07-18T08:40:29;96125.72;;;30.01;21.50
72409;BME280;60402;48.082;11.628;2022-07-18T08:42:56;96112.19;;;29.90;21.48
72409;BME280;60402;48.082;11.628;2022-07-18T08:45:24;96117.88;;;30.49;21.28
72409;BME280;60402;48.082;11.628;2022-07-18T08:47:51;96102.75;;;29.25;22.58
72409;BME280;60402;48.082;11.628;2022-07-18T08:50:18;96112.22;;;27.99;21.34
72409;BME280;60402;48.082;11.628;2022-07-18T08:52:44;96118.72;;;28.87;21.68
72409;BME280;60402;48.082;11.628;2022-07-18T08:55:10;96111.16;;;29.29;20.94
72409;BME280;60402;48.082;11.628;2022-07-18T08:57:36;96101.44;;;29.85;22.12
72409;BME280;60402;48.082;11.628;2022-07-18T09:00:04;96111.06;;;29.02;22.88
72409;BME280;60402;48.082;11.628;2022-07-18T09:02:30;96088.44;;;29.60;22.41
72409;BME280;60402;48.082;11.628;2022-07-18T09:04:55;96090.31;;;29.97;21.60
72409;BME280;60402;48.082;11.628;2022-07-18T09:07:34;96112.41;;;30.19;19.97
72409;BME280;60402;48.082;11.628;2022-07-18T09:10:02;96094.59;;;30.36;20.35
72409;BME280;60402;48.082;11.628;2022-07-18T09:12:29;96105.09;;;29.59;20.72
72409;BME280;60402;48.082;11.628;2022-07-18T09:15:08;96101.72;;;29.10;21.57
72409;BME280;60402;48.082;11.628;2022-07-18T09:17:36;96102.69;;;28.99;22.18
72409;BME280;60402;48.082;11.628;2022-07-18T09:20:09;96102.50;;;28.91;21.70
72409;BME280;60402;48.082;11.628;2022-07-18T09:22:37;96102.94;;;28.63;21.73
72409;BME280;60402;48.082;11.628;2022-07-18T09:25:17;96082.97;;;29.37;20.21
72409;BME280;60402;48.082;11.628;2022-07-18T09:27:47;96093.53;;;29.53;20.91
72409;BME280;60402;48.082;11.628;2022-07-18T09:35:34;96090.72;;;28.51;21.50
72409;BME280;60402;48.082;11.628;2022-07-18T09:38:01;96095.88;;;29.42;21.74
72409;BME280;60402;48.082;11.628;2022-07-18T09:40:39;96084.25;;;27.77;21.36
72409;BME280;60402;48.082;11.628;2022-07-18T09:43:07;96085.63;;;27.95;21.94
72409;BME280;60402;48.082;11.628;2022-07-18T09:45:35;96090.44;;;28.31;20.40
72409;BME280;60402;48.082;11.628;2022-07-18T09:48:03;96084.63;;;28.12;21.15
72409;BME280;60402;48.082;11.628;2022-07-18T09:50:31;96088.72;;;28.60;21.26
72409;BME280;60402;48.082;11.628;2022-07-18T09:52:58;96097.88;;;28.83;20.44
72409;BME280;60402;48.082;11.628;2022-07-18T09:55:24;96085.88;;;28.16;21.56
72409;BME280;60402;48.082;11.628;2022-07-18T09:58:10;96096.03;;;28.28;21.11
72409;BME280;60402;48.082;11.628;2022-07-18T10:00:38;96099.09;;;28.36;21.56
72409;BME280;60402;48.082;11.628;2022-07-18T10:03:06;96096.50;;;28.33;21.88
72409;BME280;60402;48.082;11.628;2022-07-18T10:05:35;96101.94;;;27.98;22.37
72409;BME280;60402;48.082;11.628;2022-07-18T10:08:03;96084.03;;;27.21;21.87
72409;BME280;60402;48.082;11.628;2022-07-18T10:10:29;96092.38;;;27.30;22.67
72409;BME280;60402;48.082;11.628;2022-07-18T10:12:57;96066.63;;;27.70;22.15
72409;BME280;60402;48.082;11.628;2022-07-18T10:15:24;96085.88;;;27.73;21.82
72409;BME280;60402;48.082;11.628;2022-07-18T10:17:50;96087.03;;;28.08;22.33
72409;BME280;60402;48.082;11.628;2022-07-18T10:20:16;96079.88;;;27.90;23.36
72409;BME280;60402;48.082;11.628;2022-07-18T10:22:42;96080.31;;;27.75;22.51
72409;BME280;60402;48.082;11.628;2022-07-18T10:25:12;96075.47;;;27.83;22.69
72409;BME280;60402;48.082;11.628;2022-07-18T10:27:54;96074.19;;;27.79;22.37
72409;BME280;60402;48.082;11.628;2022-07-18T10:30:35;96074.44;;;28.43;22.69
72409;BME280;60402;48.082;11.628;2022-07-18T10:33:03;96078.72;;;28.17;22.70
72409;BME280;60402;48.082;11.628;2022-07-18T10:36:00;96075.38;;;28.51;21.87
72409;BME280;60402;48.082;11.628;2022-07-18T10:38:26;96085.88;;;28.16;22.21
72409;BME280;60402;48.082;11.628;2022-07-18T10:41:03;96061.81;;;27.78;22.30
72409;BME280;60402;48.082;11.628;2022-07-18T10:45:55;96067.94;;;27.93;22.33
72409;BME280;60402;48.082;11.628;2022-07-18T10:51:11;96071.28;;;28.60;21.57
72409;BME280;60402;48.082;11.628;2022-07-18T10:56:19;96078.88;;;28.82;22.88
72409;BME280;60402;48.082;11.628;2022-07-18T10:58:44;96065.25;;;28.90;20.95
72409;BME280;60402;48.082;11.628;2022-07-18T11:01:16;96071.22;;;27.84;21.88
72409;BME280;60402;48.082;11.628;2022-07-18T11:03:42;96073.16;;;28.00;21.67
72409;BME280;60402;48.082;11.628;2022-07-18T11:06:08;96051.75;;;27.79;21.70
72409;BME280;60402;48.082;11.628;2022-07-18T11:08:33;96054.59;;;28.03;22.32
72409;BME280;60402;48.082;11.628;2022-07-18T11:13:30;96052.09;;;28.51;22.26
72409;BME280;60402;48.082;11.628;2022-07-18T11:21:23;96062.78;;;29.13;22.06
72409;BME280;60402;48.082;11.628;2022-07-18T11:23:58;96057.72;;;29.00;22.51
72409;BME280;60402;48.082;11.628;2022-07-18T11:26:24;96046.63;;;28.10;21.88
72409;BME280;60402;48.082;11.628;2022-07-18T11:29:01;96052.81;;;28.00;21.55
72409;BME280;60402;48.082;11.628;2022-07-18T11:31:28;96048.34;;;28.18;23.05
72409;BME280;60402;48.082;11.628;2022-07-18T11:33:54;96055.81;;;28.14;22.10
72409;BME280;60402;48.082;11.628;2022-07-18T11:36:22;96051.75;;;28.73;22.97
72409;BME280;60402;48.082;11.628;2022-07-18T11:39:00;96047.88;;;28.52;23.62
72409;BME280;60402;48.082;11.628;2022-07-18T11:41:26;96041.34;;;28.27;23.39
72409;BME280;60402;48.082;11.628;2022-07-18T11:43:53;96042.50;;;27.99;22.64
72409;BME280;60402;48.082;11.628;2022-07-18T11:46:21;96045.03;;;28.46;22.83
72409;BME280;60402;48.082;11.628;2022-07-18T11:48:57;96030.97;;;27.94;22.67
72409;BME280;60402;48.082;11.628;2022-07-18T11:51:23;96043.38;;;27.70;22.87
72409;BME280;60402;48.082;11.628;2022-07-18T11:53:51;96021.72;;;28.14;23.15
72409;BME280;60402;48.082;11.628;2022-07-18T11:56:17;96044.38;;;27.78;23.12
72409;BME280;60402;48.082;11.628;2022-07-18T11:58:44;96030.75;;;27.92;22.61
72409;BME280;60402;48.082;11.628;2022-07-18T12:01:10;96022.59;;;28.09;22.49
72409;BME280;60402;48.082;11.628;2022-07-18T12:03:40;96029.66;;;28.14;22.28
72409;BME280;60402;48.082;11.628;2022-07-18T12:06:14;96029.56;;;28.89;22.65
72409;BME280;60402;48.082;11.628;2022-07-18T12:08:48;96037.97;;;29.38;23.14
72409;BME280;60402;48.082;11.628;2022-07-18T12:11:25;96026.97;;;29.18;21.67
72409;BME280;60402;48.082;11.628;2022-07-18T12:14:02;96008.91;;;29.65;22.59
72409;BME280;60402;48.082;11.628;2022-07-18T12:16:35;96012.34;;;29.76;21.69
72409;BME280;60402;48.082;11.628;2022-07-18T12:19:12;96017.16;;;29.87;21.80
72409;BME280;60402;48.082;11.628;2022-07-18T12:30:08;96009.06;;;29.40;22.83
72409;BME280;60402;48.082;11.628;2022-07-18T12:43:16;95982.16;;;28.94;21.76
72409;BME280;60402;48.082;11.628;2022-07-18T12:45:46;95993.91;;;28.70;22.22
72409;BME280;60402;48.082;11.628;2022-07-18T12:48:12;95999.59;;;28.94;22.15
72409;BME280;60402;48.082;11.628;2022-07-18T12:50:39;95981.53;;;28.18;22.27
72409;BME280;60402;48.082;11.628;2022-07-18T12:53:05;95990.31;;;28.64;21.95
72409;BME280;60402;48.082;11.628;2022-07-18T12:55:30;95996.41;;;29.11;21.83
72409;BME280;60402;48.082;11.628;2022-07-18T12:57:56;95996.59;;;28.68;21.83
72409;BME280;60402;48.082;11.628;2022-07-18T13:00:21;95998.91;;;28.88;21.71
72409;BME280;60402;48.082;11.628;2022-07-18T13:02:47;96004.56;;;28.99;22.36
72409;BME280;60402;48.082;11.628;2022-07-18T13:05:13;95985.72;;;28.55;21.86
72409;BME280;60402;48.082;11.628;2022-07-18T13:07:38;95991.69;;;28.95;22.15
72409;BME280;60402;48.082;11.628;2022-07-18T13:10:05;95981.19;;;29.05;22.38
72409;BME280;60402;48.082;11.628;2022-07-18T13:12:31;95989.25;;;29.25;21.35
72409;BME280;60402;48.082;11.628;2022-07-18T13:14:56;95992.03;;;29.31;21.45
72409;BME280;60402;48.082;11.628;2022-07-18T13:17:22;95977.50;;;29.31;21.14
72409;BME280;60402;48.082;11.628;2022-07-18T13:19:47;95984.91;;;29.59;21.37
72409;BME280;60402;48.082;11.628;2022-07-18T13:22:14;95979.97;;;29.53;21.63
72409;BME280;60402;48.082;11.628;2022-07-18T13:24:39;95971.13;;;29.19;21.73
72409;BME280;60402;48.082;11.628;2022-07-18T13:27:05;95974.50;;;29.37;21.50
72409;BME280;60402;48.082;11.628;2022-07-18T13:29:30;95995.09;;;29.52;21.26